sensor_id;sensor_type;location;lat;lon;timestamp;P1;durP1;ratioP1;P2;durP2;ratioP2
11817;SDS011;5966;52.402;5.322;2022-11-09T00:01:32;4.30;;;1.90;;
11817;SDS011;5966;52.402;5.322;2022-11-09T00:04:01;4.57;;;1.93;;
11817;SDS011;5966;52.402;5.322;2022-11-09T00:06:29;4.47;;;1.63;;
11817;SDS011;5966;52.402;5.322;2022-11-09T00:09:00;6.50;;;2.17;;
11817;SDS011;5966;52.402;5.322;2022-11-09T00:11:33;3.60;;;1.93;;
11817;SDS011;5966;52.402;5.322;2022-11-09T00:14:02;5.23;;;1.67;;
11817;SDS011;5966;52.402;5.322;2022-11-09T00:16:30;5.90;;;2.10;;
11817;SDS011;5966;52.402;5.322;2022-11-09T00:18:58;4.90;;;2.30;;
11817;SDS011;5966;52.402;5.322;2022-11-09T00:21:26;5.23;;;2.00;;
11817;SDS011;5966;52.402;5.322;2022-11-09T00:23:53;4.43;;;1.83;;
11817;SDS011;5966;52.402;5.322;2022-11-09T00:26:24;5.53;;;1.73;;
11817;SDS011;5966;52.402;5.322;2022-11-09T00:28:53;4.80;;;2.00;;
11817;SDS011;5966;52.402;5.322;2022-11-09T00:31:21;4.30;;;1.83;;
11817;SDS011;5966;52.402;5.322;2022-11-09T00:33:50;5.10;;;1.90;;
11817;SDS011;5966;52.402;5.322;2022-11-09T00:36:19;5.93;;;2.03;;
11817;SDS011;5966;52.402;5.322;2022-11-09T00:38:50;4.60;;;1.50;;
11817;SDS011;5966;52.402;5.322;2022-11-09T00:41:19;4.93;;;1.63;;
11817;SDS011;5966;52.402;5.322;2022-11-09T00:43:50;5.97;;;2.30;;
11817;SDS011;5966;52.402;5.322;2022-11-09T00:46:18;5.17;;;1.93;;
11817;SDS011;5966;52.402;5.322;2022-11-09T00:48:47;8.07;;;2.03;;
11817;SDS011;5966;52.402;5.322;2022-11-09T00:51:15;4.07;;;1.77;;
11817;SDS011;5966;52.402;5.322;2022-11-09T00:53:44;3.90;;;1.83;;
11817;SDS011;5966;52.402;5.322;2022-11-09T00:56:13;8.57;;;1.93;;
11817;SDS011;5966;52.402;5.322;2022-11-09T00:58:41;6.10;;;1.80;;
11817;SDS011;5966;52.402;5.322;2022-11-09T01:01:11;6.60;;;1.90;;
11817;SDS011;5966;52.402;5.322;2022-11-09T01:03:41;4.40;;;1.90;;
11817;SDS011;5966;52.402;5.322;2022-11-09T01:06:12;4.73;;;1.60;;
11817;SDS011;5966;52.402;5.322;2022-11-09T01:08:42;4.67;;;1.80;;
11817;SDS011;5966;52.402;5.322;2022-11-09T01:11:10;4.13;;;1.90;;
11817;SDS011;5966;52.402;5.322;2022-11-09T01:13:39;8.03;;;2.77;;
11817;SDS011;5966;52.402;5.322;2022-11-09T01:16:08;5.90;;;1.87;;
11817;SDS011;5966;52.402;5.322;2022-11-09T01:18:39;4.90;;;1.80;;
11817;SDS011;5966;52.402;5.322;2022-11-09T01:21:08;5.33;;;1.80;;
11817;SDS011;5966;52.402;5.322;2022-11-09T01:23:38;3.93;;;1.70;;
11817;SDS011;5966;52.402;5.322;2022-11-09T01:26:09;6.50;;;1.70;;
11817;SDS011;5966;52.402;5.322;2022-11-09T01:28:37;5.90;;;1.37;;
11817;SDS011;5966;52.402;5.322;2022-11-09T01:31:06;6.70;;;1.80;;
11817;SDS011;5966;52.402;5.322;2022-11-09T01:33:36;6.27;;;1.90;;
11817;SDS011;5966;52.402;5.322;2022-11-09T01:36:06;5.33;;;1.77;;
11817;SDS011;5966;52.402;5.322;2022-11-09T01:38:35;5.20;;;1.77;;
11817;SDS011;5966;52.402;5.322;2022-11-09T01:41:05;6.50;;;2.00;;
11817;SDS011;5966;52.402;5.322;2022-11-09T01:43:34;6.20;;;1.80;;
11817;SDS011;5966;52.402;5.322;2022-11-09T01:46:03;9.73;;;2.13;;
11817;SDS011;5966;52.402;5.322;2022-11-09T01:48:40;3.63;;;1.57;;
11817;SDS011;5966;52.402;5.322;2022-11-09T01:51:13;6.67;;;1.80;;
11817;SDS011;5966;52.402;5.322;2022-11-09T01:53:46;8.30;;;1.70;;
11817;SDS011;5966;52.402;5.322;2022-11-09T01:56:17;6.23;;;1.80;;
11817;SDS011;5966;52.402;5.322;2022-11-09T01:58:47;8.47;;;1.83;;
11817;SDS011;5966;52.402;5.322;2022-11-09T02:01:19;7.47;;;2.00;;
11817;SDS011;5966;52.402;5.322;2022-11-09T02:03:49;6.80;;;1.63;;
11817;SDS011;5966;52.402;5.322;2022-11-09T02:06:21;6.37;;;1.93;;
11817;SDS011;5966;52.402;5.322;2022-11-09T02:08:52;8.80;;;2.37;;
11817;SDS011;5966;52.402;5.322;2022-11-09T02:11:23;8.03;;;1.90;;
11817;SDS011;5966;52.402;5.322;2022-11-09T02:13:55;9.60;;;1.90;;
11817;SDS011;5966;52.402;5.322;2022-11-09T02:16:26;7.23;;;2.27;;
11817;SDS011;5966;52.402;5.322;2022-11-09T02:18:57;5.63;;;1.83;;
11817;SDS011;5966;52.402;5.322;2022-11-09T02:21:28;4.90;;;1.60;;
11817;SDS011;5966;52.402;5.322;2022-11-09T02:23:57;3.73;;;1.80;;
11817;SDS011;5966;52.402;5.322;2022-11-09T02:26:27;4.80;;;1.60;;
11817;SDS011;5966;52.402;5.322;2022-11-09T02:28:58;2.97;;;1.67;;
11817;SDS011;5966;52.402;5.322;2022-11-09T02:31:30;5.73;;;1.70;;
11817;SDS011;5966;52.402;5.322;2022-11-09T02:34:01;6.30;;;1.83;;
11817;SDS011;5966;52.402;5.322;2022-11-09T02:39:02;4.53;;;1.87;;
11817;SDS011;5966;52.402;5.322;2022-11-09T02:41:31;6.37;;;1.67;;
11817;SDS011;5966;52.402;5.322;2022-11-09T02:44:02;7.53;;;2.07;;
11817;SDS011;5966;52.402;5.322;2022-11-09T02:46:31;7.00;;;1.77;;
11817;SDS011;5966;52.402;5.322;2022-11-09T02:49:01;6.93;;;1.97;;
11817;SDS011;5966;52.402;5.322;2022-11-09T02:51:29;5.37;;;1.83;;
11817;SDS011;5966;52.402;5.322;2022-11-09T02:53:59;9.53;;;2.10;;
11817;SDS011;5966;52.402;5.322;2022-11-09T02:56:26;6.63;;;2.13;;
11817;SDS011;5966;52.402;5.322;2022-11-09T02:58:54;8.83;;;1.70;;
11817;SDS011;5966;52.402;5.322;2022-11-09T03:01:22;8.63;;;1.77;;
11817;SDS011;5966;52.402;5.322;2022-11-09T03:03:50;8.57;;;2.13;;
11817;SDS011;5966;52.402;5.322;2022-11-09T03:06:18;5.70;;;2.00;;
11817;SDS011;5966;52.402;5.322;2022-11-09T03:09:00;7.20;;;2.27;;
11817;SDS011;5966;52.402;5.322;2022-11-09T03:11:29;9.47;;;1.90;;
11817;SDS011;5966;52.402;5.322;2022-11-09T03:13:58;6.00;;;1.77;;
11817;SDS011;5966;52.402;5.322;2022-11-09T03:16:26;9.43;;;1.80;;
11817;SDS011;5966;52.402;5.322;2022-11-09T03:18:54;6.60;;;1.97;;
11817;SDS011;5966;52.402;5.322;2022-11-09T03:21:23;5.23;;;1.60;;
11817;SDS011;5966;52.402;5.322;2022-11-09T03:23:51;5.10;;;1.77;;
11817;SDS011;5966;52.402;5.322;2022-11-09T03:26:21;5.23;;;1.47;;
11817;SDS011;5966;52.402;5.322;2022-11-09T03:28:49;5.80;;;1.80;;
11817;SDS011;5966;52.402;5.322;2022-11-09T03:31:17;3.13;;;1.60;;
11817;SDS011;5966;52.402;5.322;2022-11-09T03:33:45;6.97;;;1.77;;
11817;SDS011;5966;52.402;5.322;2022-11-09T03:36:13;3.30;;;1.57;;
11817;SDS011;5966;52.402;5.322;2022-11-09T03:38:41;5.13;;;1.60;;
11817;SDS011;5966;52.402;5.322;2022-11-09T03:41:09;3.57;;;1.60;;
11817;SDS011;5966;52.402;5.322;2022-11-09T03:43:38;5.63;;;1.70;;
11817;SDS011;5966;52.402;5.322;2022-11-09T03:46:06;3.97;;;1.67;;
11817;SDS011;5966;52.402;5.322;2022-11-09T03:48:35;9.87;;;1.83;;
11817;SDS011;5966;52.402;5.322;2022-11-09T03:51:03;6.73;;;1.73;;
11817;SDS011;5966;52.402;5.322;2022-11-09T03:53:31;5.20;;;1.80;;
11817;SDS011;5966;52.402;5.322;2022-11-09T03:55:59;12.20;;;2.00;;
11817;SDS011;5966;52.402;5.322;2022-11-09T03:58:27;6.03;;;1.63;;
11817;SDS011;5966;52.402;5.322;2022-11-09T04:01:00;5.30;;;1.77;;
11817;SDS011;5966;52.402;5.322;2022-11-09T04:03:28;6.57;;;1.60;;
11817;SDS011;5966;52.402;5.322;2022-11-09T04:05:56;8.80;;;2.00;;
11817;SDS011;5966;52.402;5.322;2022-11-09T04:08:25;7.50;;;2.10;;
11817;SDS011;5966;52.402;5.322;2022-11-09T04:10:57;6.10;;;1.80;;
11817;SDS011;5966;52.402;5.322;2022-11-09T04:13:33;9.30;;;2.00;;
11817;SDS011;5966;52.402;5.322;2022-11-09T04:16:03;7.07;;;1.80;;
11817;SDS011;5966;52.402;5.322;2022-11-09T04:18:31;6.30;;;1.73;;
11817;SDS011;5966;52.402;5.322;2022-11-09T04:20:59;5.80;;;1.80;;
11817;SDS011;5966;52.402;5.322;2022-11-09T04:23:27;5.20;;;1.80;;
11817;SDS011;5966;52.402;5.322;2022-11-09T04:25:56;5.53;;;1.87;;
11817;SDS011;5966;52.402;5.322;2022-11-09T04:28:24;5.20;;;1.80;;
11817;SDS011;5966;52.402;5.322;2022-11-09T04:30:52;3.97;;;1.73;;
11817;SDS011;5966;52.402;5.322;2022-11-09T04:33:21;6.63;;;1.83;;
11817;SDS011;5966;52.402;5.322;2022-11-09T04:35:49;5.83;;;2.00;;
11817;SDS011;5966;52.402;5.322;2022-11-09T04:38:17;5.27;;;2.07;;
11817;SDS011;5966;52.402;5.322;2022-11-09T04:40:45;5.63;;;1.90;;
11817;SDS011;5966;52.402;5.322;2022-11-09T04:43:13;5.43;;;1.87;;
11817;SDS011;5966;52.402;5.322;2022-11-09T04:45:41;4.70;;;1.67;;
11817;SDS011;5966;52.402;5.322;2022-11-09T04:48:09;4.60;;;2.33;;
11817;SDS011;5966;52.402;5.322;2022-11-09T04:50:39;2.97;;;1.33;;
11817;SDS011;5966;52.402;5.322;2022-11-09T04:53:08;6.53;;;2.17;;
11817;SDS011;5966;52.402;5.322;2022-11-09T04:55:37;6.97;;;1.53;;
11817;SDS011;5966;52.402;5.322;2022-11-09T04:58:05;4.30;;;1.90;;
11817;SDS011;5966;52.402;5.322;2022-11-09T05:00:36;8.43;;;1.93;;
11817;SDS011;5966;52.402;5.322;2022-11-09T05:03:24;6.77;;;1.73;;
11817;SDS011;5966;52.402;5.322;2022-11-09T05:05:53;6.60;;;1.93;;
11817;SDS011;5966;52.402;5.322;2022-11-09T05:08:21;3.83;;;1.40;;
11817;SDS011;5966;52.402;5.322;2022-11-09T05:10:54;3.60;;;1.50;;
11817;SDS011;5966;52.402;5.322;2022-11-09T05:13:37;4.93;;;2.20;;
11817;SDS011;5966;52.402;5.322;2022-11-09T05:16:10;6.73;;;1.60;;
11817;SDS011;5966;52.402;5.322;2022-11-09T05:18:40;4.93;;;1.47;;
11817;SDS011;5966;52.402;5.322;2022-11-09T05:21:09;4.87;;;1.90;;
11817;SDS011;5966;52.402;5.322;2022-11-09T05:23:37;4.33;;;1.53;;
11817;SDS011;5966;52.402;5.322;2022-11-09T05:26:22;5.73;;;1.50;;
11817;SDS011;5966;52.402;5.322;2022-11-09T05:28:50;7.57;;;1.83;;
11817;SDS011;5966;52.402;5.322;2022-11-09T05:31:18;4.97;;;1.60;;
11817;SDS011;5966;52.402;5.322;2022-11-09T05:33:47;6.20;;;1.87;;
11817;SDS011;5966;52.402;5.322;2022-11-09T05:36:18;4.57;;;2.03;;
11817;SDS011;5966;52.402;5.322;2022-11-09T05:38:46;5.73;;;1.70;;
11817;SDS011;5966;52.402;5.322;2022-11-09T05:41:14;6.73;;;1.50;;
11817;SDS011;5966;52.402;5.322;2022-11-09T05:43:42;5.83;;;1.70;;
11817;SDS011;5966;52.402;5.322;2022-11-09T05:46:11;3.33;;;1.43;;
11817;SDS011;5966;52.402;5.322;2022-11-09T05:48:39;5.87;;;1.70;;
11817;SDS011;5966;52.402;5.322;2022-11-09T05:51:10;5.67;;;1.63;;
11817;SDS011;5966;52.402;5.322;2022-11-09T05:53:41;4.40;;;1.40;;
11817;SDS011;5966;52.402;5.322;2022-11-09T05:56:12;4.27;;;1.60;;
11817;SDS011;5966;52.402;5.322;2022-11-09T05:58:41;5.37;;;1.83;;
11817;SDS011;5966;52.402;5.322;2022-11-09T06:01:10;4.73;;;1.80;;
11817;SDS011;5966;52.402;5.322;2022-11-09T06:03:39;8.43;;;1.90;;
11817;SDS011;5966;52.402;5.322;2022-11-09T06:06:10;7.13;;;1.97;;
11817;SDS011;5966;52.402;5.322;2022-11-09T06:08:39;5.77;;;1.70;;
11817;SDS011;5966;52.402;5.322;2022-11-09T06:11:11;8.53;;;1.73;;
11817;SDS011;5966;52.402;5.322;2022-11-09T06:13:48;7.43;;;1.83;;
11817;SDS011;5966;52.402;5.322;2022-11-09T06:16:16;6.03;;;1.70;;
11817;SDS011;5966;52.402;5.322;2022-11-09T06:18:44;2.97;;;2.07;;
11817;SDS011;5966;52.402;5.322;2022-11-09T06:21:12;6.03;;;1.83;;
11817;SDS011;5966;52.402;5.322;2022-11-09T06:23:41;9.23;;;2.50;;
11817;SDS011;5966;52.402;5.322;2022-11-09T06:26:09;3.73;;;1.30;;
11817;SDS011;5966;52.402;5.322;2022-11-09T06:28:38;5.97;;;1.80;;
11817;SDS011;5966;52.402;5.322;2022-11-09T06:31:11;6.20;;;1.73;;
11817;SDS011;5966;52.402;5.322;2022-11-09T06:33:40;7.97;;;2.03;;
11817;SDS011;5966;52.402;5.322;2022-11-09T06:36:08;5.03;;;1.43;;
11817;SDS011;5966;52.402;5.322;2022-11-09T06:38:37;8.17;;;1.93;;
11817;SDS011;5966;52.402;5.322;2022-11-09T06:41:09;9.47;;;1.97;;
11817;SDS011;5966;52.402;5.322;2022-11-09T06:43:37;7.43;;;1.90;;
11817;SDS011;5966;52.402;5.322;2022-11-09T06:46:05;6.07;;;1.60;;
11817;SDS011;5966;52.402;5.322;2022-11-09T06:48:36;6.33;;;1.70;;
11817;SDS011;5966;52.402;5.322;2022-11-09T06:51:05;6.13;;;1.63;;
11817;SDS011;5966;52.402;5.322;2022-11-09T06:53:33;3.97;;;1.43;;
11817;SDS011;5966;52.402;5.322;2022-11-09T06:56:03;8.77;;;2.13;;
11817;SDS011;5966;52.402;5.322;2022-11-09T06:58:33;6.57;;;2.10;;
11817;SDS011;5966;52.402;5.322;2022-11-09T07:01:05;4.50;;;1.70;;
11817;SDS011;5966;52.402;5.322;2022-11-09T07:03:34;6.33;;;1.80;;
11817;SDS011;5966;52.402;5.322;2022-11-09T07:06:03;4.10;;;1.50;;
11817;SDS011;5966;52.402;5.322;2022-11-09T07:08:32;5.07;;;2.03;;
11817;SDS011;5966;52.402;5.322;2022-11-09T07:11:01;7.20;;;1.90;;
11817;SDS011;5966;52.402;5.322;2022-11-09T07:13:31;5.17;;;1.73;;
11817;SDS011;5966;52.402;5.322;2022-11-09T07:16:02;10.90;;;2.20;;
11817;SDS011;5966;52.402;5.322;2022-11-09T07:18:30;8.90;;;2.07;;
11817;SDS011;5966;52.402;5.322;2022-11-09T07:20:59;7.93;;;2.00;;
11817;SDS011;5966;52.402;5.322;2022-11-09T07:23:28;6.67;;;1.60;;
11817;SDS011;5966;52.402;5.322;2022-11-09T07:25:56;7.43;;;2.17;;
11817;SDS011;5966;52.402;5.322;2022-11-09T07:28:24;8.23;;;2.20;;
11817;SDS011;5966;52.402;5.322;2022-11-09T07:30:54;7.73;;;1.97;;
11817;SDS011;5966;52.402;5.322;2022-11-09T07:33:24;8.60;;;1.80;;
11817;SDS011;5966;52.402;5.322;2022-11-09T07:35:56;5.93;;;1.77;;
11817;SDS011;5966;52.402;5.322;2022-11-09T07:38:28;7.63;;;2.23;;
11817;SDS011;5966;52.402;5.322;2022-11-09T07:41:01;7.63;;;1.83;;
11817;SDS011;5966;52.402;5.322;2022-11-09T07:43:29;7.63;;;1.83;;
11817;SDS011;5966;52.402;5.322;2022-11-09T07:46:07;3.93;;;1.70;;
11817;SDS011;5966;52.402;5.322;2022-11-09T07:48:37;9.97;;;2.17;;
11817;SDS011;5966;52.402;5.322;2022-11-09T07:51:05;4.03;;;2.27;;
11817;SDS011;5966;52.402;5.322;2022-11-09T07:53:44;10.43;;;2.03;;
11817;SDS011;5966;52.402;5.322;2022-11-09T07:56:12;5.93;;;2.00;;
11817;SDS011;5966;52.402;5.322;2022-11-09T07:58:40;4.63;;;1.70;;
11817;SDS011;5966;52.402;5.322;2022-11-09T08:01:09;6.90;;;2.00;;
11817;SDS011;5966;52.402;5.322;2022-11-09T08:03:39;8.03;;;1.70;;
11817;SDS011;5966;52.402;5.322;2022-11-09T08:06:07;8.43;;;2.10;;
11817;SDS011;5966;52.402;5.322;2022-11-09T08:08:43;8.60;;;2.10;;
11817;SDS011;5966;52.402;5.322;2022-11-09T08:11:11;6.70;;;1.80;;
11817;SDS011;5966;52.402;5.322;2022-11-09T08:13:40;7.70;;;2.27;;
11817;SDS011;5966;52.402;5.322;2022-11-09T08:16:09;8.20;;;2.23;;
11817;SDS011;5966;52.402;5.322;2022-11-09T08:18:37;8.17;;;2.20;;
11817;SDS011;5966;52.402;5.322;2022-11-09T08:21:07;6.13;;;2.10;;
11817;SDS011;5966;52.402;5.322;2022-11-09T08:23:38;7.47;;;1.97;;
11817;SDS011;5966;52.402;5.322;2022-11-09T08:26:09;6.83;;;2.03;;
11817;SDS011;5966;52.402;5.322;2022-11-09T08:28:37;4.60;;;1.93;;
11817;SDS011;5966;52.402;5.322;2022-11-09T08:31:06;6.57;;;1.87;;
11817;SDS011;5966;52.402;5.322;2022-11-09T08:34:05;6.70;;;1.90;;
11817;SDS011;5966;52.402;5.322;2022-11-09T08:36:39;5.80;;;1.90;;
11817;SDS011;5966;52.402;5.322;2022-11-09T08:39:07;9.23;;;1.90;;
11817;SDS011;5966;52.402;5.322;2022-11-09T08:41:36;8.30;;;2.40;;
11817;SDS011;5966;52.402;5.322;2022-11-09T08:44:06;6.87;;;2.13;;
11817;SDS011;5966;52.402;5.322;2022-11-09T08:46:34;7.73;;;2.23;;
11817;SDS011;5966;52.402;5.322;2022-11-09T08:49:09;4.93;;;1.90;;
11817;SDS011;5966;52.402;5.322;2022-11-09T08:51:41;7.93;;;2.27;;
11817;SDS011;5966;52.402;5.322;2022-11-09T08:54:09;9.83;;;2.70;;
11817;SDS011;5966;52.402;5.322;2022-11-09T08:56:39;10.07;;;2.57;;
11817;SDS011;5966;52.402;5.322;2022-11-09T08:59:08;11.67;;;2.50;;
11817;SDS011;5966;52.402;5.322;2022-11-09T09:01:40;5.70;;;2.27;;
11817;SDS011;5966;52.402;5.322;2022-11-09T09:04:12;6.73;;;2.03;;
11817;SDS011;5966;52.402;5.322;2022-11-09T09:06:40;9.53;;;2.73;;
11817;SDS011;5966;52.402;5.322;2022-11-09T09:09:08;7.03;;;2.60;;
11817;SDS011;5966;52.402;5.322;2022-11-09T09:11:36;9.80;;;2.73;;
11817;SDS011;5966;52.402;5.322;2022-11-09T09:14:05;6.20;;;2.23;;
11817;SDS011;5966;52.402;5.322;2022-11-09T09:16:34;9.60;;;2.33;;
11817;SDS011;5966;52.402;5.322;2022-11-09T09:19:06;10.47;;;2.30;;
11817;SDS011;5966;52.402;5.322;2022-11-09T09:21:56;6.30;;;2.10;;
11817;SDS011;5966;52.402;5.322;2022-11-09T09:24:30;8.20;;;2.40;;
11817;SDS011;5966;52.402;5.322;2022-11-09T09:27:13;8.37;;;2.33;;
11817;SDS011;5966;52.402;5.322;2022-11-09T09:29:43;6.60;;;2.27;;
11817;SDS011;5966;52.402;5.322;2022-11-09T09:32:14;7.67;;;1.97;;
11817;SDS011;5966;52.402;5.322;2022-11-09T09:34:45;10.30;;;2.33;;
11817;SDS011;5966;52.402;5.322;2022-11-09T09:37:13;6.20;;;2.30;;
11817;SDS011;5966;52.402;5.322;2022-11-09T09:39:42;7.63;;;2.30;;
11817;SDS011;5966;52.402;5.322;2022-11-09T09:42:11;6.83;;;2.07;;
11817;SDS011;5966;52.402;5.322;2022-11-09T09:44:44;6.87;;;2.53;;
11817;SDS011;5966;52.402;5.322;2022-11-09T09:47:20;6.80;;;2.20;;
11817;SDS011;5966;52.402;5.322;2022-11-09T09:49:54;7.57;;;2.33;;
11817;SDS011;5966;52.402;5.322;2022-11-09T09:52:27;8.87;;;2.27;;
11817;SDS011;5966;52.402;5.322;2022-11-09T09:55:04;8.80;;;2.57;;
11817;SDS011;5966;52.402;5.322;2022-11-09T09:57:36;11.60;;;2.80;;
11817;SDS011;5966;52.402;5.322;2022-11-09T10:02:47;8.10;;;2.40;;
11817;SDS011;5966;52.402;5.322;2022-11-09T10:05:33;5.60;;;2.20;;
11817;SDS011;5966;52.402;5.322;2022-11-09T10:08:20;5.17;;;2.10;;
11817;SDS011;5966;52.402;5.322;2022-11-09T10:11:00;9.60;;;2.20;;
11817;SDS011;5966;52.402;5.322;2022-11-09T10:13:40;5.83;;;2.57;;
11817;SDS011;5966;52.402;5.322;2022-11-09T10:16:18;8.40;;;2.30;;
11817;SDS011;5966;52.402;5.322;2022-11-09T10:22:06;7.90;;;2.13;;
11817;SDS011;5966;52.402;5.322;2022-11-09T10:24:39;7.07;;;2.10;;
11817;SDS011;5966;52.402;5.322;2022-11-09T10:27:35;8.47;;;2.60;;
11817;SDS011;5966;52.402;5.322;2022-11-09T10:30:16;7.33;;;2.30;;
11817;SDS011;5966;52.402;5.322;2022-11-09T10:32:57;8.70;;;2.40;;
11817;SDS011;5966;52.402;5.322;2022-11-09T10:35:54;10.30;;;2.33;;
11817;SDS011;5966;52.402;5.322;2022-11-09T10:38:41;7.00;;;2.10;;
11817;SDS011;5966;52.402;5.322;2022-11-09T10:41:19;10.50;;;2.53;;
11817;SDS011;5966;52.402;5.322;2022-11-09T10:43:56;9.50;;;2.70;;
11817;SDS011;5966;52.402;5.322;2022-11-09T10:46:25;10.50;;;2.57;;
11817;SDS011;5966;52.402;5.322;2022-11-09T10:48:56;5.20;;;2.03;;
11817;SDS011;5966;52.402;5.322;2022-11-09T11:00:57;5.70;;;1.50;;
11817;SDS011;5966;52.402;5.322;2022-11-09T11:03:32;6.70;;;2.23;;
11817;SDS011;5966;52.402;5.322;2022-11-09T11:06:25;6.13;;;2.00;;
11817;SDS011;5966;52.402;5.322;2022-11-09T11:11:47;6.07;;;2.37;;
11817;SDS011;5966;52.402;5.322;2022-11-09T11:14:34;5.60;;;1.77;;
11817;SDS011;5966;52.402;5.322;2022-11-09T11:20:22;3.60;;;1.63;;
11817;SDS011;5966;52.402;5.322;2022-11-09T11:23:04;7.03;;;2.07;;
11817;SDS011;5966;52.402;5.322;2022-11-09T11:25:38;7.13;;;1.80;;
11817;SDS011;5966;52.402;5.322;2022-11-09T11:28:25;5.60;;;2.00;;
11817;SDS011;5966;52.402;5.322;2022-11-09T11:31:04;3.90;;;1.43;;
11817;SDS011;5966;52.402;5.322;2022-11-09T11:33:37;7.40;;;1.67;;
11817;SDS011;5966;52.402;5.322;2022-11-09T11:36:09;7.93;;;2.10;;
11817;SDS011;5966;52.402;5.322;2022-11-09T11:38:49;7.03;;;1.60;;
11817;SDS011;5966;52.402;5.322;2022-11-09T11:44:54;6.07;;;2.10;;
11817;SDS011;5966;52.402;5.322;2022-11-09T11:48:04;5.73;;;1.77;;
11817;SDS011;5966;52.402;5.322;2022-11-09T11:50:53;6.30;;;1.70;;
11817;SDS011;5966;52.402;5.322;2022-11-09T11:53:39;5.67;;;1.50;;
11817;SDS011;5966;52.402;5.322;2022-11-09T11:56:23;6.37;;;1.33;;
11817;SDS011;5966;52.402;5.322;2022-11-09T11:58:59;4.83;;;1.23;;
11817;SDS011;5966;52.402;5.322;2022-11-09T12:02:02;6.87;;;1.70;;
11817;SDS011;5966;52.402;5.322;2022-11-09T12:05:00;5.87;;;1.90;;
11817;SDS011;5966;52.402;5.322;2022-11-09T12:08:02;5.67;;;1.63;;
11817;SDS011;5966;52.402;5.322;2022-11-09T12:10:44;4.10;;;1.70;;
11817;SDS011;5966;52.402;5.322;2022-11-09T12:13:27;6.07;;;1.57;;
11817;SDS011;5966;52.402;5.322;2022-11-09T12:16:18;3.57;;;1.37;;
11817;SDS011;5966;52.402;5.322;2022-11-09T12:19:17;3.80;;;1.40;;
11817;SDS011;5966;52.402;5.322;2022-11-09T12:22:08;4.43;;;1.03;;
11817;SDS011;5966;52.402;5.322;2022-11-09T12:24:46;3.17;;;1.63;;
11817;SDS011;5966;52.402;5.322;2022-11-09T12:27:26;3.57;;;1.20;;
11817;SDS011;5966;52.402;5.322;2022-11-09T12:30:09;5.60;;;1.63;;
11817;SDS011;5966;52.402;5.322;2022-11-09T12:32:43;2.83;;;0.73;;
11817;SDS011;5966;52.402;5.322;2022-11-09T12:35:22;3.43;;;1.00;;
11817;SDS011;5966;52.402;5.322;2022-11-09T12:38:03;2.00;;;0.73;;
11817;SDS011;5966;52.402;5.322;2022-11-09T12:40:45;1.87;;;0.70;;
11817;SDS011;5966;52.402;5.322;2022-11-09T12:43:18;1.63;;;0.77;;
11817;SDS011;5966;52.402;5.322;2022-11-09T12:45:54;3.27;;;1.00;;
11817;SDS011;5966;52.402;5.322;2022-11-09T12:48:26;5.60;;;1.20;;
11817;SDS011;5966;52.402;5.322;2022-11-09T12:50:59;2.63;;;1.13;;
11817;SDS011;5966;52.402;5.322;2022-11-09T12:53:33;3.13;;;0.87;;
11817;SDS011;5966;52.402;5.322;2022-11-09T12:56:07;5.70;;;1.20;;
11817;SDS011;5966;52.402;5.322;2022-11-09T12:58:43;5.23;;;1.50;;
11817;SDS011;5966;52.402;5.322;2022-11-09T13:01:11;8.00;;;1.33;;
11817;SDS011;5966;52.402;5.322;2022-11-09T13:04:02;3.17;;;1.40;;
11817;SDS011;5966;52.402;5.322;2022-11-09T13:06:31;3.77;;;1.43;;
11817;SDS011;5966;52.402;5.322;2022-11-09T13:09:03;4.80;;;1.33;;
11817;SDS011;5966;52.402;5.322;2022-11-09T13:11:37;6.33;;;1.60;;
11817;SDS011;5966;52.402;5.322;2022-11-09T13:14:31;4.73;;;1.70;;
11817;SDS011;5966;52.402;5.322;2022-11-09T13:17:01;4.57;;;1.43;;
11817;SDS011;5966;52.402;5.322;2022-11-09T13:20:44;5.53;;;1.80;;
11817;SDS011;5966;52.402;5.322;2022-11-09T13:23:31;3.90;;;1.53;;
11817;SDS011;5966;52.402;5.322;2022-11-09T13:26:50;6.10;;;1.70;;
11817;SDS011;5966;52.402;5.322;2022-11-09T13:29:29;4.23;;;1.50;;
11817;SDS011;5966;52.402;5.322;2022-11-09T13:32:22;4.00;;;1.20;;
11817;SDS011;5966;52.402;5.322;2022-11-09T13:34:54;4.20;;;1.50;;
11817;SDS011;5966;52.402;5.322;2022-11-09T13:37:44;3.33;;;1.53;;
11817;SDS011;5966;52.402;5.322;2022-11-09T13:40:38;4.47;;;1.53;;
11817;SDS011;5966;52.402;5.322;2022-11-09T13:43:19;4.87;;;1.40;;
11817;SDS011;5966;52.402;5.322;2022-11-09T13:45:57;4.03;;;1.40;;
11817;SDS011;5966;52.402;5.322;2022-11-09T13:49:02;4.63;;;1.43;;
11817;SDS011;5966;52.402;5.322;2022-11-09T13:55:24;4.63;;;1.10;;
11817;SDS011;5966;52.402;5.322;2022-11-09T13:57:59;6.27;;;1.60;;
11817;SDS011;5966;52.402;5.322;2022-11-09T14:00:32;2.27;;;1.10;;
11817;SDS011;5966;52.402;5.322;2022-11-09T14:03:03;7.27;;;1.50;;
11817;SDS011;5966;52.402;5.322;2022-11-09T14:05:49;2.90;;;1.23;;
11817;SDS011;5966;52.402;5.322;2022-11-09T14:08:22;2.10;;;1.13;;
11817;SDS011;5966;52.402;5.322;2022-11-09T14:10:58;7.07;;;1.47;;
11817;SDS011;5966;52.402;5.322;2022-11-09T14:13:52;5.77;;;1.20;;
11817;SDS011;5966;52.402;5.322;2022-11-09T14:16:34;4.70;;;1.43;;
11817;SDS011;5966;52.402;5.322;2022-11-09T14:19:17;4.60;;;1.20;;
11817;SDS011;5966;52.402;5.322;2022-11-09T14:22:12;2.67;;;0.87;;
11817;SDS011;5966;52.402;5.322;2022-11-09T14:24:57;5.67;;;1.60;;
11817;SDS011;5966;52.402;5.322;2022-11-09T14:27:26;5.20;;;1.20;;
11817;SDS011;5966;52.402;5.322;2022-11-09T14:29:54;3.67;;;1.40;;
11817;SDS011;5966;52.402;5.322;2022-11-09T14:32:29;3.17;;;1.20;;
11817;SDS011;5966;52.402;5.322;2022-11-09T14:35:19;4.10;;;1.00;;
11817;SDS011;5966;52.402;5.322;2022-11-09T14:37:49;3.13;;;1.00;;
11817;SDS011;5966;52.402;5.322;2022-11-09T14:40:30;5.13;;;1.80;;
11817;SDS011;5966;52.402;5.322;2022-11-09T14:43:19;4.53;;;1.30;;
11817;SDS011;5966;52.402;5.322;2022-11-09T14:46:21;7.17;;;1.50;;
11817;SDS011;5966;52.402;5.322;2022-11-09T14:48:53;2.90;;;1.10;;
11817;SDS011;5966;52.402;5.322;2022-11-09T14:51:24;8.30;;;1.63;;
11817;SDS011;5966;52.402;5.322;2022-11-09T14:56:39;5.80;;;1.40;;
11817;SDS011;5966;52.402;5.322;2022-11-09T14:59:35;3.87;;;1.03;;
11817;SDS011;5966;52.402;5.322;2022-11-09T15:02:05;6.47;;;1.53;;
11817;SDS011;5966;52.402;5.322;2022-11-09T15:07:19;2.20;;;0.80;;
11817;SDS011;5966;52.402;5.322;2022-11-09T15:09:50;3.20;;;1.10;;
11817;SDS011;5966;52.402;5.322;2022-11-09T15:16:02;5.17;;;1.13;;
11817;SDS011;5966;52.402;5.322;2022-11-09T15:18:33;4.97;;;1.27;;
11817;SDS011;5966;52.402;5.322;2022-11-09T15:21:12;5.00;;;1.20;;
11817;SDS011;5966;52.402;5.322;2022-11-09T15:23:46;4.17;;;1.37;;
11817;SDS011;5966;52.402;5.322;2022-11-09T15:26:28;4.20;;;1.43;;
11817;SDS011;5966;52.402;5.322;2022-11-09T15:29:25;3.60;;;1.23;;
11817;SDS011;5966;52.402;5.322;2022-11-09T15:31:58;4.13;;;1.40;;
11817;SDS011;5966;52.402;5.322;2022-11-09T15:34:28;5.60;;;1.87;;
11817;SDS011;5966;52.402;5.322;2022-11-09T15:37:02;5.77;;;1.77;;
11817;SDS011;5966;52.402;5.322;2022-11-09T15:39:31;4.83;;;1.43;;
11817;SDS011;5966;52.402;5.322;2022-11-09T15:41:59;5.77;;;1.70;;
11817;SDS011;5966;52.402;5.322;2022-11-09T15:44:30;5.57;;;1.37;;
11817;SDS011;5966;52.402;5.322;2022-11-09T15:46:59;5.97;;;1.43;;
11817;SDS011;5966;52.402;5.322;2022-11-09T15:49:28;6.33;;;1.30;;
11817;SDS011;5966;52.402;5.322;2022-11-09T15:51:58;3.17;;;1.23;;
11817;SDS011;5966;52.402;5.322;2022-11-09T15:54:30;3.10;;;1.47;;
11817;SDS011;5966;52.402;5.322;2022-11-09T15:56:58;5.03;;;1.50;;
11817;SDS011;5966;52.402;5.322;2022-11-09T15:59:26;6.23;;;1.67;;
11817;SDS011;5966;52.402;5.322;2022-11-09T16:01:57;9.30;;;1.70;;
11817;SDS011;5966;52.402;5.322;2022-11-09T16:04:28;5.37;;;1.77;;
11817;SDS011;5966;52.402;5.322;2022-11-09T16:06:56;7.77;;;1.53;;
11817;SDS011;5966;52.402;5.322;2022-11-09T16:09:26;6.90;;;1.67;;
11817;SDS011;5966;52.402;5.322;2022-11-09T16:11:58;7.20;;;1.53;;
11817;SDS011;5966;52.402;5.322;2022-11-09T16:14:26;6.03;;;1.40;;
11817;SDS011;5966;52.402;5.322;2022-11-09T16:17:00;3.17;;;1.13;;
11817;SDS011;5966;52.402;5.322;2022-11-09T16:19:28;6.27;;;1.37;;